This is the latest recevied weather packets stored in our database for station/object DG8RAD-1. If no packets are shown the sender has not sent any weather packets the latest 1 day(s).
| Time | Temp. | Humidity | Pressure | Rain* | Wind** | Luminosity | Snow |
|---|---|---|---|---|---|---|---|
| 1777992305 | 26.11° C | 33% | 1009 hPa | 0 mm | 0 m/s | - | - |
| 1777991405 | 26.67° C | 29% | 1009 hPa | 0 mm | 0 m/s | - | - |
| 1777990505 | 26.67° C | 27% | 1009 hPa | 0 mm | 0 m/s | - | - |
| 1777989605 | 26.67° C | 27% | 1009 hPa | 0 mm | 0 m/s | - | - |
| 1777988705 | 27.78° C | 25% | 1008 hPa | 0 mm | 0 m/s | - | - |
| 1777987805 | 28.33° C | 24% | 1008 hPa | 0 mm | 0 m/s | - | - |
| 1777986905 | 29.44° C | 24% | 1008 hPa | 0 mm | 0 m/s | - | - |
| 1777986005 | 29.44° C | 22% | 1008 hPa | 0 mm | 0 m/s | - | - |
| 1777985105 | 28.89° C | 22% | 1008 hPa | 0 mm | 0 m/s | - | - |
| 1777984205 | 29.44° C | 21% | 1009 hPa | 0 mm | 0 m/s | - | - |
| 1777983305 | 30.56° C | 20% | 1009 hPa | 0 mm | 0 m/s | - | - |
| 1777982405 | 30.56° C | 21% | 1008 hPa | 0 mm | 0 m/s | - | - |
| 1777981505 | 30° C | 22% | 1009 hPa | 0 mm | 0 m/s | - | - |
| 1777980605 | 29.44° C | 24% | 1009 hPa | 0 mm | 0 m/s | - | - |
| 1777979705 | 29.44° C | 23% | 1009 hPa | 0 mm | 0 m/s | - | - |
| 1777978805 | 30° C | 23% | 1009 hPa | 0 mm | 0 m/s | - | - |
| 1777977905 | 30° C | 25% | 1009 hPa | 0 mm | 0 m/s | - | - |
| 1777977005 | 28.89° C | 26% | 1009 hPa | 0 mm | 0 m/s | - | - |
| 1777976105 | 27.78° C | 28% | 1009 hPa | 0 mm | 0 m/s | - | - |
| 1777975205 | 27.78° C | 29% | 1010 hPa | 0 mm | 0 m/s | - | - |
| 1777974305 | 27.78° C | 29% | 1010 hPa | 0 mm | 0 m/s | - | - |
| 1777973405 | 27.22° C | 30% | 1010 hPa | 0 mm | 0 m/s | - | - |
| 1777972505 | 26.67° C | 32% | 1010 hPa | 0 mm | 0 m/s | - | - |
| 1777971605 | 26.67° C | 34% | 1010 hPa | 0 mm | 0 m/s | - | - |
| 1777970705 | 25.56° C | 37% | 1010 hPa | 0 mm | 0 m/s | - | - |
* Rain latest hour (hover to see other rain measurements)
** Current wind speed in m/s (hover to see current wind gust speed)